createdAt,value
2019-04-11T00:00:17.460Z,736.77
2019-04-11T00:05:21.319Z,772.07
2019-04-11T00:10:26.032Z,762.83
2019-04-11T00:15:30.712Z,699.67
2019-04-11T00:20:34.537Z,756.93
2019-04-11T00:25:38.239Z,668.43
2019-04-11T00:30:42.160Z,585.30
2019-04-11T00:35:46.106Z,711.20
2019-04-11T00:40:49.854Z,879.23
2019-04-11T00:45:54.070Z,673.70
2019-04-11T00:50:57.977Z,781.80
2019-04-11T00:56:02.258Z,723.73
2019-04-11T01:01:07.188Z,772.97
2019-04-11T01:06:12.195Z,520.67
2019-04-11T01:11:16.151Z,573.80
2019-04-11T01:16:28.358Z,707.07
2019-04-11T01:21:32.793Z,738.17
2019-04-11T01:26:41.330Z,570.43
2019-04-11T01:31:46.569Z,790.10
2019-04-11T01:36:51.213Z,768.23
2019-04-11T01:41:55.290Z,736.10
2019-04-11T01:46:59.306Z,641.67
2019-04-11T01:52:04.737Z,858.27
2019-04-11T01:57:09.730Z,761.80
2019-04-11T02:02:36.806Z,788.17
2019-04-11T02:07:40.684Z,631.03
2019-04-11T02:12:45.572Z,360.47
2019-04-11T02:17:59.425Z,559.33
2019-04-11T02:23:23.968Z,446.33
2019-04-11T02:28:28.697Z,372.23
2019-04-11T02:33:32.932Z,425.60
2019-04-11T02:38:48.759Z,335.50
2019-04-11T02:43:51.606Z,401.80
2019-04-11T02:48:56.777Z,322.67
2019-04-11T02:54:02.242Z,356.13
2019-04-11T02:59:07.241Z,345.30
2019-04-11T03:04:12.745Z,301.90
2019-04-11T03:09:17.729Z,275.57
2019-04-11T03:14:23.302Z,185.40
2019-04-11T03:19:42.581Z,278.43
2019-04-11T03:24:35.855Z,257.27
2019-04-11T03:29:40.638Z,195.53
2019-04-11T03:35:45.760Z,323.30
2019-04-11T03:40:13.173Z,389.23
2019-04-11T03:45:22.669Z,531.00
2019-04-11T03:50:08.358Z,301.77
2019-04-11T03:55:08.731Z,260.20
2019-04-11T04:00:14.863Z,284.60
2019-04-11T04:05:24.445Z,116.13
2019-04-11T04:10:31.812Z,105.70
2019-04-11T04:16:04.193Z,154.87
2019-04-11T04:21:22.688Z,154.50
2019-04-11T04:26:26.969Z,104.30
2019-04-11T04:31:32.779Z,121.77
2019-04-11T04:36:37.862Z,209.57
2019-04-11T04:41:49.482Z,284.93
2019-04-11T04:47:03.181Z,405.87
2019-04-11T04:51:55.671Z,89.80
2019-04-11T04:57:00.954Z,22.67
2019-04-11T05:02:06.609Z,28.23
2019-04-11T05:07:11.676Z,28.47
2019-04-11T05:12:16.239Z,26.30
2019-04-11T05:17:20.159Z,20.93
2019-04-11T05:22:24.656Z,40.60
2019-04-11T05:27:29.323Z,28.00
2019-04-11T05:32:33.460Z,135.23
2019-04-11T05:37:37.865Z,173.57
2019-04-11T05:42:41.775Z,169.00
2019-04-11T05:47:49.309Z,168.87
2019-04-11T05:52:52.474Z,368.60
2019-04-11T05:57:56.969Z,313.40
2019-04-11T06:03:03.782Z,413.70
2019-04-11T06:08:09.940Z,418.67
2019-04-11T06:13:20.594Z,489.63
2019-04-11T06:18:45.053Z,510.67
2019-04-11T06:24:14.094Z,422.90
2019-04-11T06:29:26.422Z,363.87
2019-04-11T06:34:30.434Z,504.93
2019-04-11T06:39:39.572Z,435.20
2019-04-11T06:45:02.164Z,882.90
2019-04-11T06:50:17.887Z,304.50
2019-04-11T06:55:39.572Z,391.70
2019-04-11T07:00:47.512Z,334.13
2019-04-11T07:05:53.129Z,233.70
2019-04-11T07:11:01.616Z,91.10
2019-04-11T07:16:05.360Z,63.77
2019-04-11T07:21:10.943Z,20.23
2019-04-11T07:26:46.244Z,47.20
2019-04-11T07:32:09.762Z,248.27
2019-04-11T07:37:26.487Z,267.07
2019-04-11T07:42:43.470Z,200.17
2019-04-11T07:47:52.759Z,132.23
2019-04-11T07:53:01.315Z,289.77
2019-04-11T07:58:22.296Z,339.73
2019-04-11T08:03:44.660Z,348.13
2019-04-11T08:09:07.563Z,334.40
2019-04-11T08:14:24.563Z,343.30
2019-04-11T08:19:47.587Z,536.27
2019-04-11T08:24:58.725Z,680.20
2019-04-11T08:30:02.733Z,241.80
2019-04-11T08:35:16.018Z,486.23
2019-04-11T08:40:19.917Z,164.60
2019-04-11T08:45:25.748Z,72.43
2019-04-11T08:50:32.718Z,866.50
2019-04-11T08:55:48.882Z,231.93
2019-04-11T09:00:59.306Z,262.17
2019-04-11T09:06:08.317Z,14.23
2019-04-11T09:11:24.765Z,148.47
2019-04-11T09:16:52.639Z,34.67
2019-04-11T09:22:15.122Z,56.47
2019-04-11T09:27:47.385Z,262.03
2019-04-11T09:33:13.278Z,438.00
2019-04-11T09:38:18.189Z,611.67
2019-04-11T09:43:26.166Z,522.50
2019-04-11T09:48:46.320Z,319.17
2019-04-11T09:53:55.028Z,108.53
2019-04-11T09:59:02.323Z,482.17
2019-04-11T10:04:06.658Z,334.27
2019-04-11T10:09:11.471Z,271.63
2019-04-11T10:14:17.632Z,44.03
2019-04-11T10:19:31.832Z,657.73
2019-04-11T10:25:10.711Z,410.30
2019-04-11T10:30:51.935Z,105.83
2019-04-11T10:36:18.974Z,53.90
2019-04-11T10:41:37.850Z,449.73
2019-04-11T10:46:53.540Z,110.87
2019-04-11T10:52:07.675Z,31.23
2019-04-11T10:57:24.912Z,66.50
2019-04-11T11:03:04.313Z,12.00
2019-04-11T11:08:15.360Z,14.80
2019-04-11T11:13:44.331Z,58.37
2019-04-11T11:19:33.730Z,55.33
2019-04-11T11:24:40.623Z,203.30
2019-04-11T11:30:06.691Z,101.00
2019-04-11T11:35:45.796Z,87.70
2019-04-11T11:41:18.457Z,46.53
2019-04-11T11:46:44.657Z,32.60
2019-04-11T11:52:11.277Z,11.53
2019-04-11T11:57:20.728Z,160.30
2019-04-11T12:02:32.726Z,278.17
2019-04-11T12:07:41.052Z,36.97
2019-04-11T12:13:10.837Z,56.37
2019-04-11T12:18:30.290Z,145.40
2019-04-11T12:24:01.205Z,33.50
2019-04-11T12:29:12.339Z,103.70
2019-04-11T12:34:32.384Z,321.43
2019-04-11T12:39:55.679Z,215.93
2019-04-11T12:45:37.156Z,125.10
2019-04-11T12:50:58.760Z,60.47
2019-04-11T12:56:20.525Z,85.53
2019-04-11T13:01:43.007Z,96.07
2019-04-11T13:07:14.955Z,108.57
2019-04-11T13:12:36.543Z,319.30
2019-04-11T13:17:43.215Z,35.27
2019-04-11T13:22:47.813Z,99.50
2019-04-11T13:27:54.870Z,114.03
2019-04-11T13:33:00.848Z,114.20
2019-04-11T13:38:17.298Z,105.70
2019-04-11T13:43:37.283Z,147.67
2019-04-11T13:48:58.378Z,87.07
2019-04-11T13:54:20.540Z,159.87
2019-04-11T13:59:42.479Z,141.33
2019-04-11T14:04:47.365Z,388.17
2019-04-11T14:09:52.606Z,560.53
2019-04-11T14:15:06.130Z,83.10
2019-04-11T14:20:29.090Z,321.20
2019-04-11T14:25:52.069Z,497.33
2019-04-11T14:31:09.944Z,559.77
2019-04-11T14:36:33.686Z,212.13
2019-04-11T14:41:46.481Z,223.10
2019-04-11T14:47:06.628Z,612.57
2019-04-11T14:52:26.966Z,816.90
2019-04-11T14:57:54.840Z,631.17
2019-04-11T15:03:09.531Z,539.23
2019-04-11T15:08:17.668Z,795.63
2019-04-11T15:13:24.219Z,742.63
2019-04-11T15:18:28.143Z,636.23
2019-04-11T15:23:37.545Z,567.07
2019-04-11T15:29:02.383Z,585.27
2019-04-11T15:34:24.011Z,479.97
2019-04-11T15:39:48.008Z,431.90
2019-04-11T15:45:13.543Z,403.37
2019-04-11T15:50:35.695Z,418.53
2019-04-11T15:55:48.677Z,321.97
2019-04-11T16:01:07.794Z,221.87
2019-04-11T16:06:38.989Z,285.40
2019-04-11T16:12:07.559Z,226.20
2019-04-11T16:17:33.493Z,94.50
2019-04-11T16:23:05.576Z,103.20
2019-04-11T16:28:27.136Z,26.87
2019-04-11T16:33:46.158Z,220.77
2019-04-11T16:39:07.268Z,517.17
2019-04-11T16:44:15.354Z,458.90
2019-04-11T16:49:19.148Z,440.10
2019-04-11T16:54:23.279Z,494.27
2019-04-11T16:59:27.510Z,433.10
2019-04-11T17:04:31.324Z,383.33
2019-04-11T17:09:39.718Z,470.40
2019-04-11T17:14:43.821Z,329.73
2019-04-11T17:19:48.614Z,200.07
2019-04-11T17:24:53.467Z,196.53
2019-04-11T17:29:57.448Z,372.27
2019-04-11T17:35:02.026Z,165.13
2019-04-11T17:40:07.618Z,105.33
2019-04-11T17:45:11.588Z,249.77
2019-04-11T17:50:15.428Z,262.37
2019-04-11T17:55:19.363Z,181.83
2019-04-11T18:00:29.508Z,214.37
2019-04-11T18:05:32.232Z,225.07
2019-04-11T18:10:36.111Z,345.20
2019-04-11T18:15:40.189Z,620.97
2019-04-11T18:20:44.106Z,454.80
2019-04-11T18:25:48.859Z,316.13
2019-04-11T18:30:54.019Z,319.83
2019-04-11T18:36:01.988Z,399.77
2019-04-11T18:41:05.235Z,360.07
2019-04-11T18:46:09.449Z,543.87
2019-04-11T18:51:13.260Z,507.83
2019-04-11T18:56:17.007Z,691.20
2019-04-11T19:01:26.883Z,553.20
2019-04-11T19:06:30.756Z,531.67
2019-04-11T19:11:34.509Z,478.63
2019-04-11T19:16:38.365Z,535.40
2019-04-11T19:21:42.163Z,536.07
2019-04-11T19:26:47.018Z,472.80
2019-04-11T19:31:50.842Z,470.23
2019-04-11T19:36:54.779Z,431.33
2019-04-11T19:41:59.056Z,577.53
2019-04-11T19:47:08.559Z,526.40
2019-04-11T19:52:12.382Z,424.50
2019-04-11T19:57:16.250Z,531.07
2019-04-11T20:02:23.134Z,466.63
2019-04-11T20:07:30.110Z,277.70
2019-04-11T20:12:34.128Z,388.70
2019-04-11T20:17:44.142Z,439.53
2019-04-11T20:22:43.831Z,390.90
2019-04-11T20:27:48.183Z,468.17
2019-04-11T20:32:53.183Z,443.77
2019-04-11T20:37:57.025Z,440.23
2019-04-11T20:43:00.768Z,549.00
2019-04-11T20:48:04.517Z,652.53
2019-04-11T20:53:13.084Z,715.83
2019-04-11T20:58:14.022Z,847.00
2019-04-11T21:03:17.806Z,647.63
2019-04-11T21:08:21.646Z,900.17
2019-04-11T21:13:25.643Z,878.87
2019-04-11T21:18:29.440Z,992.03
2019-04-11T21:23:33.218Z,865.33
2019-04-11T21:28:37.282Z,999.90
2019-04-11T21:33:41.024Z,990.50
2019-04-11T21:38:44.833Z,999.90
2019-04-11T21:43:48.807Z,999.90
2019-04-11T21:48:52.567Z,999.90
2019-04-11T21:53:56.291Z,987.43
2019-04-11T21:59:00.011Z,843.13
2019-04-11T22:04:03.910Z,729.63
2019-04-11T22:09:09.177Z,950.33
2019-04-11T22:14:12.898Z,795.83
2019-04-11T22:19:16.634Z,758.23
2019-04-11T22:24:20.551Z,816.83
2019-04-11T22:29:25.061Z,968.13
2019-04-11T22:34:56.755Z,851.20
2019-04-11T22:40:02.109Z,979.57
2019-04-11T22:45:08.509Z,967.17
2019-04-11T22:50:12.439Z,999.90
2019-04-11T22:55:16.163Z,999.73
2019-04-11T23:00:20.012Z,740.97
2019-04-11T23:05:23.735Z,975.10
2019-04-11T23:10:28.557Z,999.90
2019-04-11T23:15:32.454Z,820.67
2019-04-11T23:20:36.187Z,973.70
2019-04-11T23:25:39.896Z,861.37
2019-04-11T23:30:49.494Z,974.00
2019-04-11T23:35:51.174Z,884.97
2019-04-11T23:40:55.474Z,999.90
2019-04-11T23:45:59.288Z,999.90
2019-04-11T23:51:03.266Z,999.90
2019-04-11T23:56:07.249Z,999.90
